createdAt,value
2017-12-21T00:01:52.293Z,5.90
2017-12-21T00:04:20.501Z,5.90
2017-12-21T00:06:47.941Z,5.90
2017-12-21T00:09:16.222Z,5.90
2017-12-21T00:11:43.693Z,5.90
2017-12-21T00:14:11.128Z,5.90
2017-12-21T00:16:39.357Z,6.00
2017-12-21T00:19:07.772Z,6.00
2017-12-21T00:21:35.209Z,6.00
2017-12-21T00:24:04.089Z,6.00
2017-12-21T00:26:31.521Z,6.00
2017-12-21T00:28:58.969Z,6.00
2017-12-21T00:31:26.493Z,6.00
2017-12-21T00:33:54.712Z,6.00
2017-12-21T00:36:22.172Z,6.00
2017-12-21T00:38:49.616Z,6.00
2017-12-21T00:41:17.216Z,6.00
2017-12-21T00:43:44.652Z,6.00
2017-12-21T00:46:12.121Z,6.10
2017-12-21T00:48:43.492Z,6.00
2017-12-21T00:51:10.948Z,6.00
2017-12-21T00:53:38.385Z,6.10
2017-12-21T00:56:06.157Z,6.10
2017-12-21T00:58:33.596Z,6.00
2017-12-21T01:01:01.067Z,6.00
2017-12-21T01:03:32.329Z,6.00
2017-12-21T01:06:01.044Z,6.00
2017-12-21T01:08:29.246Z,6.00
2017-12-21T01:10:56.682Z,6.00
2017-12-21T01:13:25.041Z,6.00
2017-12-21T01:15:52.476Z,6.10
2017-12-21T01:18:19.940Z,6.10
2017-12-21T01:20:47.381Z,6.10
2017-12-21T01:23:14.844Z,6.10
2017-12-21T01:25:42.284Z,6.10
2017-12-21T01:28:10.200Z,6.10
2017-12-21T01:30:37.641Z,6.10
2017-12-21T01:33:05.374Z,6.10
2017-12-21T01:35:32.811Z,6.10
2017-12-21T01:38:00.281Z,6.00
2017-12-21T01:40:27.721Z,6.10
2017-12-21T01:42:55.387Z,6.10
2017-12-21T01:45:22.828Z,6.10
2017-12-21T01:47:51.033Z,6.10
2017-12-21T01:50:18.520Z,6.10
2017-12-21T01:52:45.956Z,6.10
2017-12-21T01:55:13.399Z,6.10
2017-12-21T01:57:40.868Z,6.10
2017-12-21T02:00:08.309Z,6.10
2017-12-21T02:02:35.800Z,6.10
2017-12-21T02:05:03.245Z,6.10
2017-12-21T02:07:30.706Z,6.10
2017-12-21T02:09:58.164Z,6.10
2017-12-21T02:12:25.601Z,6.10
2017-12-21T02:14:53.069Z,6.10
2017-12-21T02:17:20.674Z,6.10
2017-12-21T02:19:48.104Z,6.10
2017-12-21T02:22:15.573Z,6.10
2017-12-21T02:24:43.012Z,6.10
2017-12-21T02:27:10.472Z,6.20
2017-12-21T02:29:58.858Z,6.20
2017-12-21T02:32:26.688Z,6.20
2017-12-21T02:34:54.130Z,6.20
2017-12-21T02:37:22.355Z,6.20
2017-12-21T02:39:49.785Z,6.20
2017-12-21T02:42:21.289Z,6.20
2017-12-21T02:44:48.776Z,6.30
2017-12-21T02:47:16.284Z,6.30
2017-12-21T02:49:44.498Z,6.30
2017-12-21T02:52:11.966Z,6.30
2017-12-21T02:54:39.405Z,6.30
2017-12-21T02:57:06.875Z,6.30
2017-12-21T02:59:34.365Z,6.30
2017-12-21T03:02:01.805Z,6.30
2017-12-21T03:04:29.249Z,6.30
2017-12-21T03:06:57.505Z,6.30
2017-12-21T03:09:24.993Z,6.30
2017-12-21T03:11:52.441Z,6.30
2017-12-21T03:14:19.887Z,6.30
2017-12-21T03:16:47.517Z,6.30
2017-12-21T03:19:19.564Z,6.30
2017-12-21T03:21:47.093Z,6.30
2017-12-21T03:24:14.529Z,6.30
2017-12-21T03:26:41.985Z,6.30
2017-12-21T03:29:09.522Z,6.30
2017-12-21T03:31:42.817Z,6.30
2017-12-21T03:34:11.594Z,6.30
2017-12-21T03:36:39.029Z,6.30
2017-12-21T03:39:06.473Z,6.40
2017-12-21T03:41:33.945Z,6.30
2017-12-21T03:44:01.394Z,6.40
2017-12-21T03:46:28.865Z,6.40
2017-12-21T03:48:56.305Z,6.40
2017-12-21T03:51:23.754Z,6.40
2017-12-21T03:53:51.309Z,6.40
2017-12-21T03:56:18.781Z,6.30
2017-12-21T03:58:47.185Z,6.40
2017-12-21T04:01:14.624Z,6.40
2017-12-21T04:03:42.094Z,6.40
2017-12-21T04:06:09.589Z,6.40
2017-12-21T04:08:37.029Z,6.40
2017-12-21T04:11:05.245Z,6.40
2017-12-21T04:13:32.805Z,6.40
2017-12-21T04:16:00.242Z,6.40
2017-12-21T04:18:27.684Z,6.40
2017-12-21T04:20:55.914Z,6.50
2017-12-21T04:23:23.566Z,6.40
2017-12-21T04:25:51.024Z,6.50
2017-12-21T04:28:18.470Z,6.50
2017-12-21T04:30:46.257Z,6.40
2017-12-21T04:33:13.737Z,6.40
2017-12-21T04:35:41.203Z,6.50
2017-12-21T04:38:08.644Z,6.50
2017-12-21T04:40:36.168Z,6.50
2017-12-21T04:43:03.614Z,6.40
2017-12-21T04:45:31.242Z,6.50
2017-12-21T04:47:59.448Z,6.50
2017-12-21T04:50:26.888Z,6.50
2017-12-21T04:52:55.122Z,6.50
2017-12-21T04:55:22.586Z,6.50
2017-12-21T04:57:50.026Z,6.50
2017-12-21T05:00:19.477Z,6.50
2017-12-21T05:02:47.689Z,6.50
2017-12-21T05:05:15.134Z,6.50
2017-12-21T05:07:42.741Z,6.50
2017-12-21T05:10:10.217Z,6.50
2017-12-21T05:12:37.654Z,6.50
2017-12-21T05:15:05.089Z,6.50
2017-12-21T05:17:33.350Z,6.50
2017-12-21T05:20:00.790Z,6.50
2017-12-21T05:22:28.224Z,6.50
2017-12-21T05:24:56.772Z,6.50
2017-12-21T05:27:24.213Z,6.50
2017-12-21T05:29:51.933Z,6.50
2017-12-21T05:32:20.164Z,6.50
2017-12-21T05:34:47.597Z,6.50
2017-12-21T05:37:15.053Z,6.50
2017-12-21T05:39:42.488Z,6.50
2017-12-21T05:42:10.850Z,6.50
2017-12-21T05:44:38.284Z,6.50
2017-12-21T05:47:05.766Z,6.50
2017-12-21T05:49:33.204Z,6.50
2017-12-21T05:52:00.638Z,6.50
2017-12-21T05:54:29.112Z,6.50
2017-12-21T05:56:56.570Z,6.50
2017-12-21T05:59:24.005Z,6.50
2017-12-21T06:01:51.629Z,6.50
2017-12-21T06:04:19.065Z,6.60
2017-12-21T06:06:46.508Z,6.50
2017-12-21T06:09:29.961Z,6.50
2017-12-21T06:11:57.398Z,6.50
2017-12-21T06:14:25.601Z,6.50
2017-12-21T06:16:54.480Z,6.50
2017-12-21T06:19:21.917Z,6.50
2017-12-21T06:22:13.366Z,6.60
2017-12-21T06:24:40.808Z,6.60
2017-12-21T06:27:08.478Z,6.60
2017-12-21T06:29:35.948Z,6.50
2017-12-21T06:32:04.122Z,6.60
2017-12-21T06:34:31.557Z,6.50
2017-12-21T06:36:59.957Z,6.50
2017-12-21T06:39:27.442Z,6.50
2017-12-21T06:41:55.647Z,6.50
2017-12-21T06:44:24.073Z,6.50
2017-12-21T06:46:52.503Z,6.50
2017-12-21T06:49:19.949Z,6.50
2017-12-21T06:51:57.031Z,6.60
2017-12-21T06:54:24.477Z,6.50
2017-12-21T06:56:52.709Z,6.60
2017-12-21T07:02:30.663Z,6.50
2017-12-21T07:04:58.153Z,6.50
2017-12-21T07:07:26.485Z,6.60
2017-12-21T07:09:54.061Z,6.60
2017-12-21T07:12:22.274Z,6.60
2017-12-21T07:14:49.709Z,6.60
2017-12-21T07:17:19.930Z,6.60
2017-12-21T07:19:48.160Z,6.60
2017-12-21T07:22:15.610Z,6.60
2017-12-21T07:24:44.710Z,6.60
2017-12-21T07:27:12.154Z,6.60
2017-12-21T07:29:39.599Z,6.60
2017-12-21T07:32:07.098Z,6.60
2017-12-21T07:34:35.481Z,6.60
2017-12-21T07:37:02.952Z,6.60
2017-12-21T07:39:31.167Z,6.60
2017-12-21T07:41:58.788Z,6.60
2017-12-21T07:44:26.233Z,6.60
2017-12-21T07:46:53.677Z,6.60
2017-12-21T07:49:21.142Z,6.60
2017-12-21T07:51:48.592Z,6.60
2017-12-21T07:54:16.053Z,6.60
2017-12-21T07:56:43.526Z,6.60
2017-12-21T07:59:11.925Z,6.60
2017-12-21T08:01:40.261Z,6.60
2017-12-21T08:04:07.696Z,6.60
2017-12-21T08:06:35.141Z,6.60
2017-12-21T08:09:07.390Z,6.60
2017-12-21T08:11:35.600Z,6.60
2017-12-21T08:14:03.088Z,6.60
2017-12-21T08:16:30.537Z,6.60
2017-12-21T08:18:57.997Z,6.60
2017-12-21T08:21:26.281Z,6.60
2017-12-21T08:23:53.753Z,6.60
2017-12-21T08:26:22.127Z,6.60
2017-12-21T08:28:49.694Z,6.70
2017-12-21T08:31:17.136Z,6.70
2017-12-21T08:33:44.588Z,6.70
2017-12-21T08:36:13.013Z,6.60
2017-12-21T08:38:40.462Z,6.70
2017-12-21T08:41:08.928Z,6.70
2017-12-21T08:43:36.377Z,6.70
2017-12-21T08:46:03.933Z,6.70
2017-12-21T08:48:31.421Z,6.70
2017-12-21T08:50:59.725Z,6.70
2017-12-21T08:53:27.164Z,6.70
2017-12-21T08:55:54.650Z,6.70
2017-12-21T08:58:24.011Z,6.70
2017-12-21T09:00:51.566Z,6.70
2017-12-21T09:03:19.783Z,6.80
2017-12-21T09:05:47.246Z,6.80
2017-12-21T09:08:14.680Z,6.80
2017-12-21T09:10:42.150Z,6.80
2017-12-21T09:13:09.612Z,6.80
2017-12-21T09:15:37.080Z,6.80
2017-12-21T09:18:04.530Z,6.90
2017-12-21T09:20:32.104Z,6.90
2017-12-21T09:23:13.272Z,6.90
2017-12-21T09:25:40.728Z,6.90
2017-12-21T09:28:08.200Z,6.90
2017-12-21T09:30:35.749Z,6.90
2017-12-21T09:33:03.212Z,6.90
2017-12-21T09:35:30.703Z,6.90
2017-12-21T09:37:58.138Z,6.90
2017-12-21T09:40:25.586Z,7.00
2017-12-21T09:42:53.182Z,7.00
2017-12-21T09:45:20.681Z,7.00
2017-12-21T09:47:48.117Z,7.00
2017-12-21T09:50:16.332Z,7.10
2017-12-21T09:52:43.800Z,7.10
2017-12-21T09:55:11.265Z,7.10
2017-12-21T09:57:38.714Z,7.10
2017-12-21T10:08:41.789Z,7.10
2017-12-21T10:11:09.288Z,7.10
2017-12-21T10:13:46.501Z,7.10
2017-12-21T10:16:15.021Z,7.10
2017-12-21T10:18:42.460Z,7.10
2017-12-21T10:21:09.909Z,7.10
2017-12-21T10:23:37.372Z,7.10
2017-12-21T10:26:04.956Z,7.10
2017-12-21T10:28:32.460Z,7.10
2017-12-21T10:30:59.849Z,7.10
2017-12-21T10:33:32.833Z,7.10
2017-12-21T10:36:00.281Z,7.10
2017-12-21T10:38:27.737Z,7.10
2017-12-21T10:40:55.236Z,7.10
2017-12-21T10:43:27.393Z,7.10
2017-12-21T10:45:54.936Z,7.10
2017-12-21T10:48:22.477Z,7.20
2017-12-21T10:50:49.914Z,7.30
2017-12-21T10:53:17.544Z,7.30
2017-12-21T10:55:45.906Z,7.30
2017-12-21T10:58:13.426Z,7.30
2017-12-21T11:00:40.886Z,7.30
2017-12-21T11:03:08.331Z,7.30
2017-12-21T11:05:35.973Z,7.30
2017-12-21T11:08:04.177Z,7.40
2017-12-21T11:10:31.635Z,7.40
2017-12-21T11:12:59.273Z,7.40
2017-12-21T11:15:28.657Z,7.40
2017-12-21T11:17:56.875Z,7.40
2017-12-21T11:20:24.342Z,7.40
2017-12-21T11:22:51.784Z,7.50
2017-12-21T11:25:20.698Z,7.50
2017-12-21T11:27:48.190Z,7.50
2017-12-21T11:30:16.582Z,7.50
2017-12-21T11:32:44.790Z,7.50
2017-12-21T11:35:12.437Z,7.50
2017-12-21T11:37:39.907Z,7.60
2017-12-21T11:40:07.328Z,7.60
2017-12-21T11:42:35.693Z,7.60
2017-12-21T11:45:03.134Z,7.60
2017-12-21T11:47:30.622Z,7.60
2017-12-21T11:49:58.834Z,7.60
2017-12-21T11:52:26.269Z,7.60
2017-12-21T11:54:53.841Z,7.60
2017-12-21T11:57:21.279Z,7.60
2017-12-21T11:59:49.484Z,7.60
2017-12-21T12:02:18.189Z,7.60
2017-12-21T12:04:45.639Z,7.70
2017-12-21T12:07:13.072Z,7.70
2017-12-21T12:09:40.537Z,7.70
2017-12-21T12:12:07.961Z,7.70
2017-12-21T12:14:36.181Z,7.70
2017-12-21T12:17:03.622Z,7.70
2017-12-21T12:19:31.295Z,7.70
2017-12-21T12:21:58.735Z,7.70
2017-12-21T12:24:26.654Z,7.70
2017-12-21T12:26:54.081Z,7.70
2017-12-21T12:29:26.372Z,7.70
2017-12-21T12:31:53.829Z,7.80
2017-12-21T12:34:24.310Z,7.80
2017-12-21T12:36:51.750Z,7.80
2017-12-21T12:39:19.982Z,7.90
2017-12-21T12:41:47.469Z,7.80
2017-12-21T12:44:14.907Z,7.90
2017-12-21T12:46:42.374Z,7.90
2017-12-21T12:49:09.802Z,7.90
2017-12-21T12:51:37.266Z,7.90
2017-12-21T12:54:04.701Z,7.80
2017-12-21T12:56:32.173Z,7.90
2017-12-21T12:58:59.609Z,7.90
2017-12-21T13:01:27.041Z,7.90
2017-12-21T13:03:55.297Z,7.90
2017-12-21T13:06:22.728Z,7.90
2017-12-21T13:08:50.213Z,7.90
2017-12-21T13:11:17.648Z,7.90
2017-12-21T13:13:45.088Z,7.90
2017-12-21T13:16:12.548Z,7.90
2017-12-21T13:18:40.045Z,7.90
2017-12-21T13:21:07.485Z,7.90
2017-12-21T13:23:34.932Z,7.90
2017-12-21T13:26:02.805Z,7.90
2017-12-21T13:28:30.255Z,7.90
2017-12-21T13:31:14.800Z,7.90
2017-12-21T13:33:42.249Z,7.90
2017-12-21T13:36:10.981Z,7.90
2017-12-21T13:38:38.426Z,8.00
2017-12-21T13:41:05.986Z,8.00
2017-12-21T13:43:33.429Z,8.00
2017-12-21T13:46:00.936Z,8.00
2017-12-21T13:48:29.179Z,8.00
2017-12-21T13:50:56.649Z,8.00
2017-12-21T13:53:24.090Z,7.90
2017-12-21T13:55:52.764Z,8.00
2017-12-21T13:58:20.197Z,8.00
2017-12-21T14:00:47.770Z,8.00
2017-12-21T14:03:15.213Z,8.00
2017-12-21T14:05:42.645Z,8.00
2017-12-21T14:08:10.873Z,8.00
2017-12-21T14:10:38.363Z,8.00
2017-12-21T14:13:05.781Z,8.00
2017-12-21T14:15:33.309Z,8.00
2017-12-21T14:18:01.567Z,8.00
2017-12-21T14:20:29.006Z,8.00
2017-12-21T14:22:56.444Z,8.00
2017-12-21T14:25:23.920Z,8.00
2017-12-21T14:27:51.350Z,8.00
2017-12-21T14:30:20.566Z,8.00
2017-12-21T14:32:48.010Z,8.00
2017-12-21T14:35:15.442Z,8.00
2017-12-21T14:37:43.140Z,8.00
2017-12-21T14:40:10.703Z,8.00
2017-12-21T14:42:38.134Z,8.00
2017-12-21T14:45:05.604Z,8.00
2017-12-21T14:47:33.069Z,8.00
2017-12-21T14:50:00.543Z,8.00
2017-12-21T14:52:29.953Z,8.00
2017-12-21T14:54:57.402Z,8.00
2017-12-21T14:57:25.066Z,8.00
2017-12-21T14:59:52.510Z,8.00
2017-12-21T15:02:19.948Z,8.00
2017-12-21T15:04:48.234Z,8.00
2017-12-21T15:07:16.442Z,8.00
2017-12-21T15:09:43.886Z,8.00
2017-12-21T15:12:12.116Z,8.00
2017-12-21T15:14:39.722Z,8.00
2017-12-21T15:17:07.156Z,8.00
2017-12-21T15:19:35.793Z,8.00
2017-12-21T15:22:03.229Z,8.00
2017-12-21T15:24:30.674Z,8.00
2017-12-21T15:26:58.141Z,8.00
2017-12-21T15:29:25.577Z,8.00
2017-12-21T15:31:53.590Z,8.00
2017-12-21T15:34:21.049Z,8.00
2017-12-21T15:36:48.487Z,8.00
2017-12-21T15:39:15.958Z,8.00
2017-12-21T15:41:43.397Z,8.00
2017-12-21T15:44:10.857Z,8.00
2017-12-21T15:46:55.188Z,8.00
2017-12-21T15:49:25.371Z,8.00
2017-12-21T15:51:52.811Z,8.00
2017-12-21T15:54:20.275Z,8.00
2017-12-21T15:59:42.303Z,8.10
2017-12-21T16:02:09.773Z,8.10
2017-12-21T16:04:37.453Z,8.10
2017-12-21T16:07:10.851Z,8.10
2017-12-21T16:09:38.331Z,8.10
2017-12-21T16:12:10.356Z,8.10
2017-12-21T16:14:37.824Z,8.10
2017-12-21T16:17:05.269Z,8.10
2017-12-21T16:19:32.728Z,8.10
2017-12-21T16:22:00.173Z,8.10
2017-12-21T16:24:32.969Z,8.10
2017-12-21T16:27:00.417Z,8.10
2017-12-21T16:29:27.853Z,8.10
2017-12-21T16:31:55.462Z,8.10
2017-12-21T16:34:24.026Z,8.10
2017-12-21T16:36:51.465Z,8.10
2017-12-21T16:39:19.075Z,8.10
2017-12-21T16:42:09.102Z,8.10
2017-12-21T16:44:36.595Z,8.10
2017-12-21T16:47:06.165Z,8.10
2017-12-21T16:49:33.656Z,8.10
2017-12-21T16:52:01.130Z,8.10
2017-12-21T16:54:30.786Z,8.00
2017-12-21T16:56:58.239Z,8.10
2017-12-21T16:59:28.202Z,8.10
2017-12-21T17:01:55.646Z,8.10
2017-12-21T17:04:23.634Z,8.10
2017-12-21T17:06:51.093Z,8.10
2017-12-21T17:09:18.546Z,8.00
2017-12-21T17:11:46.184Z,8.10
2017-12-21T17:14:13.679Z,8.10
2017-12-21T17:16:41.120Z,8.00
2017-12-21T17:19:08.616Z,8.10
2017-12-21T17:21:36.898Z,8.00
2017-12-21T17:24:07.521Z,8.00
2017-12-21T17:26:35.730Z,8.00
2017-12-21T17:29:03.315Z,8.00
2017-12-21T17:31:30.766Z,8.10
2017-12-21T17:34:02.157Z,8.00
2017-12-21T17:36:29.634Z,8.10
2017-12-21T17:38:57.854Z,8.10
2017-12-21T17:41:43.418Z,8.00
2017-12-21T17:44:10.878Z,8.10
2017-12-21T17:46:38.660Z,8.10
2017-12-21T17:49:06.098Z,8.10
2017-12-21T17:51:33.545Z,8.10
2017-12-21T17:54:01.017Z,8.10
2017-12-21T17:56:28.505Z,8.10
2017-12-21T17:58:56.901Z,8.10
2017-12-21T18:01:24.341Z,8.10
2017-12-21T18:03:51.960Z,8.10
2017-12-21T18:06:21.417Z,8.10
2017-12-21T18:08:48.947Z,8.10
2017-12-21T18:11:16.469Z,8.10
2017-12-21T18:13:43.909Z,8.10
2017-12-21T18:16:12.243Z,8.10
2017-12-21T18:18:40.882Z,8.10
2017-12-21T18:21:09.108Z,8.00
2017-12-21T18:23:36.693Z,8.00
2017-12-21T18:26:04.241Z,8.10
2017-12-21T18:28:31.690Z,8.10
2017-12-21T18:34:10.697Z,8.10
2017-12-21T18:36:46.176Z,8.00
2017-12-21T18:39:13.639Z,8.00
2017-12-21T18:41:41.101Z,8.10
2017-12-21T18:44:08.570Z,8.00
2017-12-21T18:46:36.351Z,8.00
2017-12-21T18:49:07.399Z,8.00
2017-12-21T18:51:36.750Z,8.10
2017-12-21T18:54:04.219Z,8.00
2017-12-21T18:56:31.669Z,8.00
2017-12-21T18:58:59.309Z,8.00
2017-12-21T19:01:27.808Z,8.00
2017-12-21T19:03:55.283Z,8.00
2017-12-21T19:06:22.710Z,8.00
2017-12-21T19:08:53.270Z,8.10
2017-12-21T19:11:20.731Z,8.10
2017-12-21T19:13:48.185Z,8.10
2017-12-21T19:16:15.793Z,8.10
2017-12-21T19:18:48.041Z,8.00
2017-12-21T19:21:15.523Z,8.00
2017-12-21T19:23:43.743Z,8.00
2017-12-21T19:26:11.268Z,8.00
2017-12-21T19:28:55.054Z,8.00
2017-12-21T19:31:22.666Z,8.00
2017-12-21T19:33:50.110Z,8.00
2017-12-21T19:36:18.368Z,8.00
2017-12-21T19:38:45.809Z,8.00
2017-12-21T19:41:13.382Z,8.00
2017-12-21T19:43:40.869Z,8.00
2017-12-21T19:46:11.211Z,8.10
2017-12-21T19:48:39.035Z,8.00
2017-12-21T19:51:07.405Z,8.00
2017-12-21T19:53:34.919Z,8.10
2017-12-21T19:56:02.349Z,8.10
2017-12-21T19:58:30.581Z,8.10
2017-12-21T20:01:00.296Z,8.00
2017-12-21T20:03:27.742Z,8.10
2017-12-21T20:05:55.217Z,8.10
2017-12-21T20:08:22.814Z,8.10
2017-12-21T20:10:51.056Z,8.10
2017-12-21T20:13:18.498Z,8.00
2017-12-21T20:18:45.354Z,8.00
2017-12-21T20:21:12.822Z,8.00
2017-12-21T20:23:40.261Z,8.10
2017-12-21T20:26:07.870Z,8.10
2017-12-21T20:28:35.324Z,8.10
2017-12-21T20:31:02.767Z,8.10
2017-12-21T20:33:30.289Z,8.10
2017-12-21T20:35:57.737Z,8.10
2017-12-21T20:38:28.811Z,8.10
2017-12-21T20:40:56.286Z,8.10
2017-12-21T20:43:23.823Z,8.10
2017-12-21T20:45:51.269Z,8.10
2017-12-21T20:48:18.764Z,8.10
2017-12-21T20:50:46.289Z,8.10
2017-12-21T20:53:13.741Z,8.10
2017-12-21T20:55:41.210Z,8.10
2017-12-21T20:58:08.681Z,8.10
2017-12-21T21:00:36.127Z,8.10
2017-12-21T21:03:03.813Z,8.10
2017-12-21T21:05:31.279Z,8.10
2017-12-21T21:07:58.721Z,8.10
2017-12-21T21:10:26.189Z,8.10
2017-12-21T21:12:53.642Z,8.10
2017-12-21T21:15:21.107Z,8.10
2017-12-21T21:17:48.544Z,8.10
2017-12-21T21:20:16.210Z,8.10
2017-12-21T21:22:43.653Z,8.10
2017-12-21T21:25:27.077Z,8.10
2017-12-21T21:27:54.527Z,8.10
2017-12-21T21:30:22.101Z,8.10
2017-12-21T21:32:49.545Z,8.10
2017-12-21T21:35:16.986Z,8.10
2017-12-21T21:37:44.665Z,8.10
2017-12-21T21:40:12.130Z,8.10
2017-12-21T21:42:39.580Z,8.10
2017-12-21T21:45:07.048Z,8.10
2017-12-21T21:47:34.499Z,8.10
2017-12-21T21:50:01.972Z,8.10
2017-12-21T21:52:29.458Z,8.10
2017-12-21T21:54:57.097Z,8.10
2017-12-21T21:57:24.586Z,8.10
2017-12-21T21:59:52.028Z,8.10
2017-12-21T22:02:19.560Z,8.10
2017-12-21T22:04:47.031Z,8.10
2017-12-21T22:07:14.530Z,8.10
2017-12-21T22:09:42.740Z,8.10
2017-12-21T22:12:10.193Z,8.10
2017-12-21T22:14:37.758Z,8.10
2017-12-21T22:17:05.196Z,8.10
2017-12-21T22:19:32.692Z,8.10
2017-12-21T22:22:00.137Z,8.10
2017-12-21T22:24:27.588Z,8.10
2017-12-21T22:26:55.097Z,8.10
2017-12-21T22:29:23.606Z,8.10
2017-12-21T22:31:51.046Z,8.10
2017-12-21T22:34:19.597Z,8.10
2017-12-21T22:36:47.046Z,8.10
2017-12-21T22:39:14.495Z,8.10
2017-12-21T22:41:41.961Z,8.10
2017-12-21T22:44:09.402Z,8.10
2017-12-21T22:46:36.970Z,8.10
2017-12-21T22:49:09.333Z,8.10
2017-12-21T22:51:36.935Z,8.10
2017-12-21T22:54:04.427Z,8.10
2017-12-21T22:56:31.918Z,8.10
2017-12-21T22:59:01.074Z,8.10
2017-12-21T23:01:33.137Z,8.00
2017-12-21T23:04:01.469Z,8.00
2017-12-21T23:06:28.925Z,8.00
2017-12-21T23:08:56.359Z,8.00
2017-12-21T23:11:23.809Z,8.00
2017-12-21T23:13:56.235Z,8.00
2017-12-21T23:16:23.718Z,8.00
2017-12-21T23:18:51.926Z,8.00
2017-12-21T23:21:19.361Z,8.00
2017-12-21T23:23:50.883Z,8.00
2017-12-21T23:26:18.321Z,8.00
2017-12-21T23:28:45.760Z,8.00
2017-12-21T23:31:13.690Z,8.00
2017-12-21T23:33:53.988Z,8.00
2017-12-21T23:36:21.489Z,8.00
2017-12-21T23:38:48.927Z,8.00
2017-12-21T23:41:16.458Z,8.00
2017-12-21T23:43:43.896Z,8.00
2017-12-21T23:46:12.353Z,8.00
2017-12-21T23:48:40.736Z,8.00
2017-12-21T23:51:10.312Z,8.00
2017-12-21T23:53:37.983Z,8.00
2017-12-21T23:56:05.453Z,8.00
2017-12-21T23:58:33.693Z,8.00
